Time;durP1;ratioP1;P1;durP2;ratioP2;P2;SDS_P1;SDS_P2;PMS_P1;PMS_P2;Temp;Humidity;BMP_temperature;BMP_pressure;BME280_temperature;BME280_humidity;BME280_pressure;Samples;Min_cycle;Max_cycle;Signal;HPM_P1;HPM_P2
2023/06/16 00:00:11;;;;;;;6.68;5.60;;;;;;;;;;5065364;28;20021;-73
2023/06/16 00:02:41;;;;;;;7.15;5.70;;;;;;;;;;5072854;28;20762;-73
2023/06/16 00:05:09;;;;;;;6.70;5.15;;;;;;;;;;5068319;28;20064;-73
2023/06/16 00:07:35;;;;;;;11.88;5.55;;;;;;;;;;5078065;28;20104;-73
2023/06/16 00:10:00;;;;;;;14.30;5.65;;;;;;;;;;5063001;28;20116;-73
2023/06/16 00:12:26;;;;;;;6.20;5.18;;;;;;;;;;5058639;28;20040;-73
2023/06/16 00:14:51;;;;;;;6.00;5.35;;;;;;;;;;5064090;28;20138;-73
2023/06/16 00:17:16;;;;;;;6.05;5.05;;;;;;;;;;5070591;28;20032;-73
2023/06/16 00:19:42;;;;;;;7.82;5.63;;;;;;;;;;5069405;28;20033;-73
2023/06/16 00:22:09;;;;;;;6.38;5.13;;;;;;;;;;5062593;28;20039;-73
2023/06/16 00:24:35;;;;;;;9.18;6.05;;;;;;;;;;5066127;28;20095;-73
2023/06/16 00:27:00;;;;;;;9.68;5.45;;;;;;;;;;5069454;28;20029;-73
2023/06/16 00:29:25;;;;;;;10.27;5.60;;;;;;;;;;5052279;28;20051;-73
2023/06/16 00:31:50;;;;;;;7.95;4.97;;;;;;;;;;5058715;28;20060;-74
2023/06/16 00:34:16;;;;;;;8.95;5.70;;;;;;;;;;5076154;28;20495;-73
2023/06/16 00:36:41;;;;;;;6.00;5.40;;;;;;;;;;5065995;28;20507;-74
2023/06/16 00:39:07;;;;;;;6.05;5.30;;;;;;;;;;5058551;28;20020;-73
2023/06/16 00:41:33;;;;;;;7.40;5.32;;;;;;;;;;5066613;28;20108;-74
2023/06/16 00:43:58;;;;;;;8.15;5.28;;;;;;;;;;5065017;28;20060;-73
2023/06/16 00:46:28;;;;;;;6.55;5.60;;;;;;;;;;5056940;28;20445;-74
2023/06/16 00:48:55;;;;;;;6.32;5.28;;;;;;;;;;5055570;28;20546;-73
2023/06/16 00:51:21;;;;;;;6.60;5.45;;;;;;;;;;5067786;28;20020;-74
2023/06/16 00:53:47;;;;;;;6.13;5.03;;;;;;;;;;5073579;28;20568;-74
2023/06/16 00:56:13;;;;;;;7.65;5.85;;;;;;;;;;5063196;28;20606;-74
2023/06/16 00:58:38;;;;;;;11.13;5.38;;;;;;;;;;5065194;28;20155;-74
2023/06/16 01:01:04;;;;;;;7.10;5.50;;;;;;;;;;5055910;28;20070;-73
2023/06/16 01:03:30;;;;;;;7.65;5.35;;;;;;;;;;5073314;28;20048;-74
2023/06/16 01:06:00;;;;;;;5.00;4.53;;;;;;;;;;5063833;28;20032;-74
2023/06/16 01:08:34;;;;;;;9.98;5.32;;;;;;;;;;5060864;28;20037;-74
2023/06/16 01:11:17;;;;;;;6.38;5.13;;;;;;;;;;5057934;28;20035;-73
2023/06/16 01:13:58;;;;;;;7.18;5.00;;;;;;;;;;5066085;28;20090;-73
2023/06/16 01:16:30;;;;;;;7.32;4.95;;;;;;;;;;5061570;28;20463;-74
2023/06/16 01:18:58;;;;;;;5.85;5.05;;;;;;;;;;5056908;28;20039;-74
2023/06/16 01:21:39;;;;;;;5.85;5.25;;;;;;;;;;5053617;28;20414;-74
2023/06/16 01:24:10;;;;;;;6.85;5.47;;;;;;;;;;5061569;28;20024;-73
2023/06/16 01:26:40;;;;;;;6.35;5.05;;;;;;;;;;5068464;28;20035;-74
2023/06/16 01:29:08;;;;;;;9.35;5.03;;;;;;;;;;5059161;28;20041;-73
2023/06/16 01:31:34;;;;;;;6.90;5.40;;;;;;;;;;5057131;28;20033;-73
2023/06/16 01:34:02;;;;;;;5.85;4.88;;;;;;;;;;5058195;28;20082;-73
2023/06/16 01:36:31;;;;;;;6.28;5.18;;;;;;;;;;5056509;28;20033;-73
2023/06/16 01:38:57;;;;;;;8.45;5.45;;;;;;;;;;5060272;28;20531;-73
2023/06/16 01:41:23;;;;;;;8.88;5.38;;;;;;;;;;5064826;28;20568;-73
2023/06/16 01:43:48;;;;;;;7.47;5.28;;;;;;;;;;5052575;28;20036;-73
2023/06/16 01:46:14;;;;;;;13.57;5.63;;;;;;;;;;5058011;28;20086;-73
2023/06/16 01:48:39;;;;;;;5.68;5.05;;;;;;;;;;5056433;28;20147;-74
2023/06/16 01:51:05;;;;;;;8.13;5.47;;;;;;;;;;5059353;28;20525;-73
2023/06/16 01:53:30;;;;;;;7.40;6.22;;;;;;;;;;5056332;28;20020;-74
2023/06/16 01:55:55;;;;;;;7.82;6.15;;;;;;;;;;5057649;28;20065;-74
2023/06/16 01:58:24;;;;;;;7.88;6.30;;;;;;;;;;5054426;28;20021;-74
2023/06/16 02:00:57;;;;;;;6.95;5.88;;;;;;;;;;5062170;28;20427;-74
2023/06/16 02:03:37;;;;;;;8.98;5.32;;;;;;;;;;5075000;28;20044;-74
2023/06/16 02:06:08;;;;;;;10.15;6.13;;;;;;;;;;5079060;28;20082;-74
2023/06/16 02:08:35;;;;;;;9.18;6.38;;;;;;;;;;5067186;28;20040;-74
2023/06/16 02:11:01;;;;;;;10.10;6.88;;;;;;;;;;5063993;28;20079;-74
2023/06/16 02:13:27;;;;;;;14.85;6.70;;;;;;;;;;5061009;28;20390;-73
2023/06/16 02:15:54;;;;;;;8.32;6.30;;;;;;;;;;5066679;28;20043;-73
2023/06/16 02:18:27;;;;;;;7.75;6.20;;;;;;;;;;5068768;28;20027;-73
2023/06/16 02:20:53;;;;;;;7.38;5.68;;;;;;;;;;5063560;28;20035;-73
2023/06/16 02:23:19;;;;;;;10.15;6.72;;;;;;;;;;5064722;28;20289;-74
2023/06/16 02:25:44;;;;;;;8.00;6.50;;;;;;;;;;5062478;28;20044;-73
2023/06/16 02:28:09;;;;;;;11.75;6.65;;;;;;;;;;5069970;28;20032;-73
2023/06/16 02:30:35;;;;;;;8.18;6.35;;;;;;;;;;5065689;28;20029;-74
2023/06/16 02:33:00;;;;;;;9.43;7.10;;;;;;;;;;5078364;28;20120;-74
2023/06/16 02:35:26;;;;;;;12.25;7.88;;;;;;;;;;5070462;28;20391;-74
2023/06/16 02:37:53;;;;;;;10.15;6.55;;;;;;;;;;5068942;28;20029;-74
2023/06/16 02:40:18;;;;;;;8.60;6.43;;;;;;;;;;5064073;28;20047;-73
2023/06/16 02:42:44;;;;;;;8.40;6.60;;;;;;;;;;5058695;28;20387;-73
2023/06/16 02:45:09;;;;;;;8.15;6.78;;;;;;;;;;5056797;28;20036;-75
2023/06/16 02:47:35;;;;;;;8.30;6.65;;;;;;;;;;5055766;28;20120;-73
2023/06/16 02:50:01;;;;;;;8.68;6.70;;;;;;;;;;5061116;28;20033;-75
2023/06/16 02:52:26;;;;;;;10.15;7.00;;;;;;;;;;5057058;28;20036;-73
2023/06/16 02:54:51;;;;;;;10.43;7.43;;;;;;;;;;5064199;28;20044;-74
2023/06/16 02:57:16;;;;;;;8.52;6.13;;;;;;;;;;5067643;28;20056;-73
2023/06/16 02:59:41;;;;;;;10.63;6.20;;;;;;;;;;5063473;28;20066;-74
2023/06/16 03:02:07;;;;;;;7.38;5.90;;;;;;;;;;5071497;28;20070;-74
2023/06/16 03:04:34;;;;;;;10.05;6.80;;;;;;;;;;5075017;28;20542;-74
2023/06/16 03:07:04;;;;;;;7.65;6.68;;;;;;;;;;5055794;28;20119;-74
2023/06/16 03:09:29;;;;;;;9.70;6.38;;;;;;;;;;5060960;28;20032;-74
2023/06/16 03:11:55;;;;;;;7.20;6.20;;;;;;;;;;5088358;28;20020;-74
2023/06/16 03:14:21;;;;;;;9.45;6.60;;;;;;;;;;5068993;28;20021;-75
2023/06/16 03:16:50;;;;;;;15.55;6.75;;;;;;;;;;5066233;28;20040;-74
2023/06/16 03:19:16;;;;;;;8.43;6.80;;;;;;;;;;5068385;28;20028;-74
2023/06/16 03:21:42;;;;;;;8.82;6.32;;;;;;;;;;5061793;28;20044;-72
2023/06/16 03:24:08;;;;;;;9.80;7.13;;;;;;;;;;5059661;28;20497;-75
2023/06/16 03:26:35;;;;;;;8.40;6.53;;;;;;;;;;5060955;28;20036;-73
2023/06/16 03:29:00;;;;;;;14.35;8.15;;;;;;;;;;5070088;28;20029;-73
2023/06/16 03:31:26;;;;;;;9.18;7.13;;;;;;;;;;5071839;28;20040;-73
2023/06/16 03:33:51;;;;;;;8.95;6.80;;;;;;;;;;5069882;28;20103;-74
2023/06/16 03:36:18;;;;;;;8.57;6.43;;;;;;;;;;5063837;28;20379;-74
2023/06/16 03:38:43;;;;;;;9.35;6.65;;;;;;;;;;5056092;28;20025;-73
2023/06/16 03:41:09;;;;;;;15.48;6.13;;;;;;;;;;5071722;28;20043;-73
2023/06/16 03:43:34;;;;;;;10.23;6.25;;;;;;;;;;5075920;28;20037;-73
2023/06/16 03:45:59;;;;;;;14.88;6.15;;;;;;;;;;5082308;28;20433;-73
2023/06/16 03:48:25;;;;;;;7.53;5.60;;;;;;;;;;5063299;28;20044;-73
2023/06/16 03:50:52;;;;;;;8.55;6.15;;;;;;;;;;5068634;28;20032;-73
2023/06/16 03:53:18;;;;;;;8.88;5.85;;;;;;;;;;5067641;28;20677;-73
2023/06/16 03:55:43;;;;;;;12.02;5.32;;;;;;;;;;5065528;28;20033;-73
2023/06/16 03:58:08;;;;;;;6.43;4.93;;;;;;;;;;5072711;28;20124;-74
2023/06/16 04:00:34;;;;;;;5.32;4.63;;;;;;;;;;5065473;28;20044;-74
2023/06/16 04:02:59;;;;;;;5.22;4.32;;;;;;;;;;5070584;28;20017;-74
2023/06/16 04:05:24;;;;;;;8.40;4.50;;;;;;;;;;5052729;28;20032;-73
2023/06/16 04:07:51;;;;;;;6.57;4.43;;;;;;;;;;5064545;28;20045;-74
2023/06/16 04:10:16;;;;;;;5.32;4.35;;;;;;;;;;5066682;28;20108;-74
2023/06/16 04:12:41;;;;;;;5.00;4.50;;;;;;;;;;5066716;28;20578;-74
2023/06/16 04:15:07;;;;;;;5.35;4.22;;;;;;;;;;5070230;28;20028;-74
2023/06/16 04:17:32;;;;;;;4.63;3.80;;;;;;;;;;5070140;28;20063;-74
2023/06/16 04:19:58;;;;;;;14.05;4.28;;;;;;;;;;5066576;28;20068;-74
2023/06/16 04:22:23;;;;;;;6.60;3.80;;;;;;;;;;5080169;28;20426;-74
2023/06/16 04:24:49;;;;;;;6.90;3.92;;;;;;;;;;5058242;28;20159;-74
2023/06/16 04:27:15;;;;;;;9.88;3.85;;;;;;;;;;5065871;28;20025;-74
2023/06/16 04:29:41;;;;;;;13.88;3.67;;;;;;;;;;5073475;28;20027;-74
2023/06/16 04:32:10;;;;;;;8.50;4.20;;;;;;;;;;5060921;28;20036;-74
2023/06/16 04:34:36;;;;;;;7.93;4.10;;;;;;;;;;5077630;28;20036;-74
2023/06/16 04:37:02;;;;;;;3.95;3.50;;;;;;;;;;5066241;28;20624;-74
2023/06/16 04:39:28;;;;;;;6.45;4.45;;;;;;;;;;5055483;28;20094;-74
2023/06/16 04:41:53;;;;;;;6.45;3.80;;;;;;;;;;5063488;28;20102;-74
2023/06/16 04:44:18;;;;;;;6.65;4.03;;;;;;;;;;5065664;28;20036;-74
2023/06/16 04:46:43;;;;;;;6.30;4.18;;;;;;;;;;5060011;28;20033;-74
2023/06/16 04:49:09;;;;;;;15.60;3.95;;;;;;;;;;5066438;28;20580;-75
2023/06/16 04:51:34;;;;;;;18.45;4.72;;;;;;;;;;5057423;28;20033;-75
2023/06/16 04:54:00;;;;;;;7.88;3.78;;;;;;;;;;5067596;28;20033;-75
2023/06/16 04:56:25;;;;;;;3.78;3.45;;;;;;;;;;5058854;28;20462;-75
2023/06/16 04:58:50;;;;;;;4.05;3.55;;;;;;;;;;5057090;28;20087;-73
2023/06/16 05:01:16;;;;;;;3.90;3.50;;;;;;;;;;5065315;28;20028;-73
2023/06/16 05:03:41;;;;;;;7.22;3.60;;;;;;;;;;5062101;28;20043;-73
2023/06/16 05:06:06;;;;;;;3.97;3.35;;;;;;;;;;5058112;28;20046;-73
2023/06/16 05:08:32;;;;;;;12.50;4.25;;;;;;;;;;5064103;28;20032;-73
2023/06/16 05:10:57;;;;;;;10.57;4.10;;;;;;;;;;5057150;28;20028;-73
2023/06/16 05:13:23;;;;;;;7.32;4.30;;;;;;;;;;5068723;28;20475;-75
2023/06/16 05:15:48;;;;;;;6.28;3.67;;;;;;;;;;5064254;28;20498;-73
2023/06/16 05:18:14;;;;;;;21.42;4.28;;;;;;;;;;5060600;28;20109;-74
2023/06/16 05:20:39;;;;;;;4.47;3.78;;;;;;;;;;5072349;28;20024;-74
2023/06/16 05:23:05;;;;;;;6.45;3.97;;;;;;;;;;5062363;28;20521;-74
2023/06/16 05:25:31;;;;;;;10.27;3.72;;;;;;;;;;5058968;28;20510;-74
2023/06/16 05:27:56;;;;;;;9.75;4.05;;;;;;;;;;5062948;28;20093;-74
2023/06/16 05:30:21;;;;;;;11.32;3.92;;;;;;;;;;5061313;28;20049;-74
2023/06/16 05:32:47;;;;;;;6.22;4.10;;;;;;;;;;5066369;28;20386;-74
2023/06/16 05:35:12;;;;;;;8.27;4.15;;;;;;;;;;5054495;28;20029;-74
2023/06/16 05:37:37;;;;;;;6.75;3.60;;;;;;;;;;5052523;28;20037;-74
2023/06/16 05:40:03;;;;;;;7.03;3.40;;;;;;;;;;5054219;28;20052;-74
2023/06/16 05:42:28;;;;;;;4.40;4.00;;;;;;;;;;5058599;28;20373;-74
2023/06/16 05:44:54;;;;;;;9.52;3.85;;;;;;;;;;5060925;28;20028;-74
2023/06/16 05:47:19;;;;;;;5.63;3.90;;;;;;;;;;5054945;28;20565;-74
2023/06/16 05:49:45;;;;;;;6.30;3.97;;;;;;;;;;5056416;28;20136;-73
2023/06/16 05:52:10;;;;;;;11.60;3.95;;;;;;;;;;5052855;28;20052;-73
2023/06/16 05:54:35;;;;;;;5.70;4.65;;;;;;;;;;5055409;28;20541;-74
2023/06/16 05:57:02;;;;;;;6.25;3.63;;;;;;;;;;5060664;28;20542;-73
2023/06/16 05:59:28;;;;;;;5.28;3.35;;;;;;;;;;5061951;28;20051;-73
2023/06/16 06:01:54;;;;;;;17.02;3.53;;;;;;;;;;5058762;28;20528;-73
2023/06/16 06:04:27;;;;;;;4.95;3.40;;;;;;;;;;5058614;28;20028;-74
2023/06/16 06:06:52;;;;;;;6.35;3.70;;;;;;;;;;5064751;28;20037;-74
2023/06/16 06:09:17;;;;;;;10.13;3.60;;;;;;;;;;5059724;28;20044;-74
2023/06/16 06:11:43;;;;;;;4.57;3.72;;;;;;;;;;5060924;28;20055;-73
2023/06/16 06:14:08;;;;;;;4.30;3.50;;;;;;;;;;5062908;28;20044;-73
2023/06/16 06:16:33;;;;;;;3.97;3.42;;;;;;;;;;5057904;28;20399;-73
2023/06/16 06:18:59;;;;;;;5.32;3.25;;;;;;;;;;5061021;28;20047;-73
2023/06/16 06:21:24;;;;;;;6.95;3.30;;;;;;;;;;5069526;28;20083;-73
2023/06/16 06:23:49;;;;;;;5.95;3.70;;;;;;;;;;5061115;28;20122;-73
2023/06/16 06:26:15;;;;;;;9.02;3.50;;;;;;;;;;5065355;28;20036;-74
2023/06/16 06:28:40;;;;;;;4.10;3.30;;;;;;;;;;5055693;28;20178;-72
2023/06/16 06:31:05;;;;;;;4.18;3.40;;;;;;;;;;5052527;28;20033;-72
2023/06/16 06:33:31;;;;;;;3.50;3.20;;;;;;;;;;5056939;28;20105;-75
2023/06/16 06:35:56;;;;;;;7.45;3.50;;;;;;;;;;5059050;28;20025;-72
2023/06/16 06:38:22;;;;;;;3.50;3.10;;;;;;;;;;5058196;28;20101;-72
2023/06/16 06:40:47;;;;;;;4.05;3.20;;;;;;;;;;5059113;28;20396;-73
2023/06/16 06:43:13;;;;;;;5.95;3.25;;;;;;;;;;5057028;28;20565;-73
2023/06/16 06:45:38;;;;;;;5.43;3.20;;;;;;;;;;5060254;28;20036;-72
2023/06/16 06:48:03;;;;;;;4.75;3.42;;;;;;;;;;5057721;28;20028;-73
2023/06/16 06:50:29;;;;;;;5.78;3.58;;;;;;;;;;5062914;28;20033;-73
2023/06/16 06:52:54;;;;;;;3.70;3.35;;;;;;;;;;5049884;28;20453;-73
2023/06/16 06:55:20;;;;;;;11.50;3.40;;;;;;;;;;5061405;28;20036;-73
2023/06/16 06:57:46;;;;;;;4.15;3.33;;;;;;;;;;5058800;28;20048;-73
2023/06/16 07:00:12;;;;;;;4.38;3.10;;;;;;;;;;5053771;28;20028;-73
2023/06/16 07:02:37;;;;;;;4.68;3.25;;;;;;;;;;5082125;28;20016;-73
2023/06/16 07:05:03;;;;;;;4.15;3.15;;;;;;;;;;5073039;28;20028;-73
2023/06/16 07:07:28;;;;;;;3.60;3.30;;;;;;;;;;5073101;28;20029;-73
2023/06/16 07:09:54;;;;;;;3.88;3.30;;;;;;;;;;5067168;28;20113;-73
2023/06/16 07:12:19;;;;;;;4.28;3.35;;;;;;;;;;5067102;28;20046;-73
2023/06/16 07:14:47;;;;;;;3.40;3.10;;;;;;;;;;5065895;28;20158;-73
2023/06/16 07:17:12;;;;;;;4.10;3.63;;;;;;;;;;5064985;28;20036;-73
2023/06/16 07:19:37;;;;;;;6.07;3.22;;;;;;;;;;5070703;28;20025;-73
2023/06/16 07:22:04;;;;;;;4.85;3.20;;;;;;;;;;5075878;28;20035;-73
2023/06/16 07:24:29;;;;;;;3.47;3.15;;;;;;;;;;5067155;28;20033;-73
2023/06/16 07:26:54;;;;;;;3.95;3.20;;;;;;;;;;5056691;28;20112;-73
2023/06/16 07:29:20;;;;;;;6.35;3.30;;;;;;;;;;5059569;28;20120;-73
2023/06/16 07:31:45;;;;;;;3.60;3.30;;;;;;;;;;5052445;28;20087;-73
2023/06/16 07:34:11;;;;;;;3.85;3.20;;;;;;;;;;5064433;28;20051;-73
2023/06/16 07:36:38;;;;;;;3.72;3.00;;;;;;;;;;5067714;28;20033;-73
2023/06/16 07:39:03;;;;;;;3.97;3.22;;;;;;;;;;5062301;28;20027;-74
2023/06/16 07:41:28;;;;;;;4.15;3.30;;;;;;;;;;5078672;28;20024;-74
2023/06/16 07:43:53;;;;;;;4.47;3.28;;;;;;;;;;5063799;28;20033;-74
2023/06/16 07:46:19;;;;;;;4.05;3.40;;;;;;;;;;5064111;28;20074;-74
2023/06/16 07:48:44;;;;;;;3.80;3.40;;;;;;;;;;5061092;28;20396;-74
2023/06/16 07:51:10;;;;;;;3.40;3.10;;;;;;;;;;5057183;28;20100;-74
2023/06/16 07:53:35;;;;;;;4.38;3.28;;;;;;;;;;5060218;28;20021;-74
2023/06/16 07:56:02;;;;;;;3.95;3.22;;;;;;;;;;5063812;28;20037;-74
2023/06/16 07:58:28;;;;;;;3.97;3.60;;;;;;;;;;5063110;28;20029;-74
2023/06/16 08:00:53;;;;;;;8.48;3.90;;;;;;;;;;5057092;28;20041;-74
2023/06/16 08:03:19;;;;;;;4.97;3.58;;;;;;;;;;5059907;28;20075;-74
2023/06/16 08:05:44;;;;;;;4.88;3.40;;;;;;;;;;5064628;28;20028;-75
2023/06/16 08:08:09;;;;;;;7.18;3.65;;;;;;;;;;5061715;28;20063;-73
2023/06/16 08:10:35;;;;;;;9.38;3.53;;;;;;;;;;5069790;28;20502;-75
2023/06/16 08:13:00;;;;;;;6.25;3.42;;;;;;;;;;5066185;28;20077;-72
2023/06/16 08:15:26;;;;;;;4.13;3.65;;;;;;;;;;5070502;28;20051;-73
2023/06/16 08:17:51;;;;;;;7.28;3.20;;;;;;;;;;5069015;28;20567;-73
2023/06/16 08:20:17;;;;;;;4.43;3.20;;;;;;;;;;5066365;28;20029;-73
2023/06/16 08:22:42;;;;;;;3.47;3.17;;;;;;;;;;5069895;28;20075;-73
2023/06/16 08:25:08;;;;;;;10.18;3.50;;;;;;;;;;5061862;28;20097;-73
2023/06/16 08:27:33;;;;;;;7.85;3.88;;;;;;;;;;5064956;28;20032;-73
2023/06/16 08:29:58;;;;;;;7.40;3.65;;;;;;;;;;5071765;28;20075;-74
2023/06/16 08:32:23;;;;;;;4.25;3.30;;;;;;;;;;5054658;28;20051;-73
2023/06/16 08:34:49;;;;;;;9.40;3.80;;;;;;;;;;5059652;28;20107;-73
2023/06/16 08:37:15;;;;;;;7.10;3.53;;;;;;;;;;5056081;28;20079;-73
2023/06/16 08:39:44;;;;;;;8.93;3.30;;;;;;;;;;5057896;28;20487;-73
2023/06/16 08:42:13;;;;;;;4.18;3.47;;;;;;;;;;5058982;28;20028;-73
2023/06/16 08:44:39;;;;;;;6.18;3.28;;;;;;;;;;5065052;28;20029;-73
2023/06/16 08:47:05;;;;;;;4.68;3.15;;;;;;;;;;5065460;28;20128;-72
2023/06/16 08:49:31;;;;;;;5.60;2.80;;;;;;;;;;5061261;28;20059;-73
2023/06/16 08:52:01;;;;;;;3.35;3.05;;;;;;;;;;5056493;28;20029;-72
2023/06/16 08:54:31;;;;;;;5.35;3.72;;;;;;;;;;5067303;28;20032;-72
2023/06/16 08:56:58;;;;;;;5.45;3.22;;;;;;;;;;5069929;28;20028;-71
2023/06/16 08:59:27;;;;;;;8.35;3.50;;;;;;;;;;5070549;28;20032;-73
2023/06/16 09:01:52;;;;;;;5.63;3.03;;;;;;;;;;5061849;28;20454;-73
2023/06/16 09:04:18;;;;;;;10.77;3.25;;;;;;;;;;5081991;28;20032;-72
2023/06/16 09:06:45;;;;;;;6.00;3.38;;;;;;;;;;5078875;28;20036;-73
2023/06/16 09:09:13;;;;;;;3.75;3.13;;;;;;;;;;5074545;28;20021;-72
2023/06/16 09:11:38;;;;;;;6.43;3.45;;;;;;;;;;5069810;28;20020;-72
2023/06/16 09:14:12;;;;;;;4.10;3.55;;;;;;;;;;5069525;28;20044;-73
2023/06/16 09:16:39;;;;;;;8.05;3.47;;;;;;;;;;5059455;28;20100;-73
2023/06/16 09:19:09;;;;;;;14.23;3.00;;;;;;;;;;5075285;28;20051;-72
2023/06/16 09:21:35;;;;;;;5.60;3.55;;;;;;;;;;5064577;28;20036;-72
2023/06/16 09:24:01;;;;;;;6.20;3.15;;;;;;;;;;5057526;28;20561;-73
2023/06/16 09:26:35;;;;;;;8.18;3.40;;;;;;;;;;5076042;28;20040;-72
2023/06/16 09:29:01;;;;;;;3.67;3.17;;;;;;;;;;5068606;28;20035;-74
2023/06/16 09:31:27;;;;;;;7.72;3.83;;;;;;;;;;5067661;28;20106;-72
2023/06/16 09:34:02;;;;;;;7.03;3.05;;;;;;;;;;5071333;28;20090;-73
2023/06/16 09:36:28;;;;;;;5.93;4.00;;;;;;;;;;5069924;28;20041;-72
2023/06/16 09:38:53;;;;;;;5.47;3.95;;;;;;;;;;5066727;28;20606;-72
2023/06/16 09:41:19;;;;;;;5.90;3.47;;;;;;;;;;5066975;28;20036;-72
2023/06/16 09:43:45;;;;;;;5.57;3.35;;;;;;;;;;5064652;28;20106;-73
2023/06/16 09:46:14;;;;;;;4.22;3.75;;;;;;;;;;5062541;28;20037;-73
2023/06/16 09:48:47;;;;;;;4.43;3.65;;;;;;;;;;5057215;28;20040;-72
2023/06/16 09:51:17;;;;;;;6.95;3.92;;;;;;;;;;5067624;28;20020;-74
2023/06/16 09:53:44;;;;;;;7.07;3.58;;;;;;;;;;5060331;28;20044;-73
2023/06/16 09:56:09;;;;;;;5.30;3.53;;;;;;;;;;5074635;28;20093;-74
2023/06/16 09:58:35;;;;;;;4.70;3.03;;;;;;;;;;5057378;28;20037;-74
2023/06/16 10:01:01;;;;;;;12.77;3.63;;;;;;;;;;5060482;28;20111;-74
2023/06/16 10:03:30;;;;;;;3.58;3.10;;;;;;;;;;5063168;28;20148;-74
2023/06/16 10:05:58;;;;;;;9.93;3.67;;;;;;;;;;5050305;28;20029;-75
2023/06/16 10:08:24;;;;;;;7.95;3.50;;;;;;;;;;5059350;28;20041;-74
2023/06/16 10:10:52;;;;;;;3.65;2.92;;;;;;;;;;5050299;28;20139;-74
2023/06/16 10:13:21;;;;;;;9.77;3.00;;;;;;;;;;5056424;28;20033;-74
2023/06/16 10:15:49;;;;;;;9.20;3.20;;;;;;;;;;5059354;28;20028;-76
2023/06/16 10:18:16;;;;;;;8.20;3.67;;;;;;;;;;5059227;28;20016;-75
2023/06/16 10:20:43;;;;;;;3.80;3.28;;;;;;;;;;5063030;28;20127;-75
2023/06/16 10:23:08;;;;;;;4.30;3.20;;;;;;;;;;5063446;28;20028;-75
2023/06/16 10:25:40;;;;;;;8.13;3.78;;;;;;;;;;5059390;28;20521;-75
2023/06/16 10:28:10;;;;;;;4.43;3.47;;;;;;;;;;5056844;28;20039;-75
2023/06/16 10:30:36;;;;;;;8.32;3.80;;;;;;;;;;5066096;28;20047;-75
2023/06/16 10:33:15;;;;;;;9.55;3.40;;;;;;;;;;5060510;28;20479;-75
2023/06/16 10:35:48;;;;;;;5.63;3.28;;;;;;;;;;5062492;28;20527;-75
2023/06/16 10:38:14;;;;;;;5.25;3.42;;;;;;;;;;5055219;28;20035;-75
2023/06/16 10:40:41;;;;;;;6.22;3.70;;;;;;;;;;5053629;28;20044;-75
2023/06/16 10:43:10;;;;;;;4.65;3.55;;;;;;;;;;5058598;28;20040;-75
2023/06/16 10:45:39;;;;;;;6.28;3.60;;;;;;;;;;5056238;28;20036;-75
2023/06/16 10:48:10;;;;;;;6.07;3.67;;;;;;;;;;5057391;28;20398;-75
2023/06/16 10:50:38;;;;;;;10.00;3.60;;;;;;;;;;5066656;28;20143;-75
2023/06/16 10:53:24;;;;;;;5.18;3.33;;;;;;;;;;5062912;28;20241;-75
2023/06/16 10:56:04;;;;;;;4.00;3.63;;;;;;;;;;5059643;28;20112;-75
2023/06/16 10:58:30;;;;;;;4.45;3.53;;;;;;;;;;5058369;28;20507;-75
2023/06/16 11:01:02;;;;;;;10.73;3.72;;;;;;;;;;5061642;28;20037;-75
2023/06/16 11:03:36;;;;;;;11.80;4.00;;;;;;;;;;5056828;28;20063;-75
2023/06/16 11:06:03;;;;;;;11.10;3.78;;;;;;;;;;5058494;28;20123;-75
2023/06/16 11:08:28;;;;;;;3.97;3.40;;;;;;;;;;5065643;28;20045;-75
2023/06/16 11:10:54;;;;;;;13.55;3.42;;;;;;;;;;5066460;28;20094;-74
2023/06/16 11:13:22;;;;;;;17.42;4.35;;;;;;;;;;5064907;28;20033;-74
2023/06/16 11:15:48;;;;;;;5.57;3.90;;;;;;;;;;5066251;28;20044;-75
2023/06/16 11:18:14;;;;;;;6.70;3.90;;;;;;;;;;5061244;28;20025;-73
2023/06/16 11:20:40;;;;;;;6.45;3.88;;;;;;;;;;5060761;28;20372;-73
2023/06/16 11:23:07;;;;;;;7.47;3.83;;;;;;;;;;5065778;28;20033;-76
2023/06/16 11:25:32;;;;;;;8.57;3.80;;;;;;;;;;5065758;28;20064;-73
2023/06/16 11:27:57;;;;;;;12.13;4.60;;;;;;;;;;5065918;28;20126;-74
2023/06/16 11:30:24;;;;;;;6.10;3.35;;;;;;;;;;5064874;28;20115;-74
2023/06/16 11:32:50;;;;;;;7.07;4.25;;;;;;;;;;5065567;28;20044;-73
2023/06/16 11:35:16;;;;;;;7.70;3.58;;;;;;;;;;5058868;28;20037;-73
2023/06/16 11:37:52;;;;;;;4.78;3.60;;;;;;;;;;5070991;28;20038;-73
2023/06/16 11:40:23;;;;;;;9.15;3.88;;;;;;;;;;5059971;28;20029;-73
2023/06/16 11:42:57;;;;;;;4.80;3.78;;;;;;;;;;5062751;28;20037;-74
2023/06/16 11:45:24;;;;;;;8.70;4.22;;;;;;;;;;5059887;28;20068;-73
2023/06/16 11:47:49;;;;;;;6.63;4.13;;;;;;;;;;5061395;28;20040;-73
2023/06/16 11:50:18;;;;;;;16.08;4.03;;;;;;;;;;5055057;28;20044;-73
2023/06/16 11:52:45;;;;;;;17.33;4.13;;;;;;;;;;5056577;28;20041;-74
2023/06/16 11:55:11;;;;;;;9.77;3.78;;;;;;;;;;5058181;28;20369;-74
2023/06/16 11:57:39;;;;;;;8.30;4.60;;;;;;;;;;5055545;28;20036;-74
2023/06/16 12:00:07;;;;;;;9.75;3.90;;;;;;;;;;5052230;28;20032;-74
2023/06/16 12:02:33;;;;;;;7.07;3.70;;;;;;;;;;5064655;28;20028;-73
2023/06/16 12:04:59;;;;;;;12.40;3.63;;;;;;;;;;5055728;28;20353;-74
2023/06/16 12:07:25;;;;;;;4.38;3.97;;;;;;;;;;5055167;28;20044;-74
2023/06/16 12:09:55;;;;;;;4.53;3.45;;;;;;;;;;5059082;28;20372;-74
2023/06/16 12:12:21;;;;;;;5.82;3.90;;;;;;;;;;5056782;28;20549;-74
2023/06/16 12:14:46;;;;;;;13.43;4.15;;;;;;;;;;5057489;28;20032;-74
2023/06/16 12:17:12;;;;;;;9.75;3.78;;;;;;;;;;5056426;28;20052;-74
2023/06/16 12:19:38;;;;;;;7.78;4.07;;;;;;;;;;5058195;28;20529;-74
2023/06/16 12:22:04;;;;;;;7.13;3.40;;;;;;;;;;5064952;28;20033;-74
2023/06/16 12:24:30;;;;;;;5.35;4.05;;;;;;;;;;5059421;28;20522;-74
2023/06/16 12:26:55;;;;;;;5.05;3.90;;;;;;;;;;5058519;28;20093;-74
2023/06/16 12:29:26;;;;;;;6.90;4.07;;;;;;;;;;5062370;28;20033;-75
2023/06/16 12:31:52;;;;;;;5.38;4.03;;;;;;;;;;5061976;28;20713;-75
2023/06/16 12:34:30;;;;;;;7.40;3.78;;;;;;;;;;5066602;28;20032;-75
2023/06/16 12:37:10;;;;;;;5.20;3.97;;;;;;;;;;5053525;28;20498;-75
2023/06/16 12:39:37;;;;;;;5.22;3.33;;;;;;;;;;5060264;28;20039;-75
2023/06/16 12:42:04;;;;;;;5.35;3.65;;;;;;;;;;5060838;28;20020;-75
2023/06/16 12:44:49;;;;;;;6.70;3.63;;;;;;;;;;5062769;28;20059;-75
2023/06/16 12:47:18;;;;;;;7.28;3.88;;;;;;;;;;5060212;28;20043;-75
2023/06/16 12:49:44;;;;;;;5.15;3.40;;;;;;;;;;5059861;28;20036;-74
2023/06/16 12:52:12;;;;;;;4.72;3.50;;;;;;;;;;5066278;28;20043;-74
2023/06/16 12:54:37;;;;;;;4.25;3.53;;;;;;;;;;5069456;28;20087;-74
2023/06/16 12:57:03;;;;;;;7.63;3.55;;;;;;;;;;5061793;28;20050;-74
2023/06/16 12:59:29;;;;;;;5.95;3.90;;;;;;;;;;5063994;28;20025;-74
2023/06/16 13:01:55;;;;;;;6.85;3.38;;;;;;;;;;5055651;28;20132;-75
2023/06/16 13:04:20;;;;;;;4.95;3.35;;;;;;;;;;5061006;28;20144;-75
2023/06/16 13:06:46;;;;;;;8.63;3.80;;;;;;;;;;5067681;28;20124;-74
2023/06/16 13:09:11;;;;;;;10.98;3.72;;;;;;;;;;5060671;28;20430;-74
2023/06/16 13:11:36;;;;;;;9.07;3.90;;;;;;;;;;5065495;28;20028;-74
2023/06/16 13:14:02;;;;;;;5.60;3.88;;;;;;;;;;5070129;28;20139;-75
2023/06/16 13:16:28;;;;;;;7.03;4.13;;;;;;;;;;5057495;28;20579;-74
2023/06/16 13:18:53;;;;;;;11.70;4.65;;;;;;;;;;5060277;28;20490;-74
2023/06/16 13:21:18;;;;;;;9.50;4.18;;;;;;;;;;5065325;28;20025;-75
2023/06/16 13:23:44;;;;;;;6.05;4.03;;;;;;;;;;5060531;28;20076;-75
2023/06/16 13:26:13;;;;;;;12.02;4.78;;;;;;;;;;5067922;28;20028;-75
2023/06/16 13:28:40;;;;;;;5.75;3.83;;;;;;;;;;5060095;28;20037;-75
2023/06/16 13:31:11;;;;;;;6.60;3.88;;;;;;;;;;5059445;28;20426;-74
2023/06/16 13:33:41;;;;;;;7.93;3.75;;;;;;;;;;5067347;28;20045;-74
2023/06/16 13:36:07;;;;;;;6.28;3.75;;;;;;;;;;5066593;28;20020;-74
2023/06/16 13:38:33;;;;;;;10.30;3.70;;;;;;;;;;5066834;28;20034;-75
2023/06/16 13:40:58;;;;;;;4.35;3.90;;;;;;;;;;5064373;28;20029;-75
2023/06/16 13:43:24;;;;;;;11.20;3.70;;;;;;;;;;5068041;28;20044;-74
2023/06/16 13:45:50;;;;;;;4.00;3.30;;;;;;;;;;5054507;28;20037;-75
2023/06/16 13:48:15;;;;;;;4.05;3.22;;;;;;;;;;5061692;28;20386;-73
2023/06/16 13:50:42;;;;;;;3.65;2.90;;;;;;;;;;5055778;28;20697;-73
2023/06/16 13:53:07;;;;;;;9.20;3.40;;;;;;;;;;5063992;28;20047;-73
2023/06/16 13:55:33;;;;;;;4.32;3.13;;;;;;;;;;5058223;28;20037;-73
2023/06/16 13:57:58;;;;;;;5.72;3.42;;;;;;;;;;5065014;28;20029;-73
2023/06/16 14:00:24;;;;;;;3.83;3.33;;;;;;;;;;5057460;28;20041;-73
2023/06/16 14:02:49;;;;;;;9.52;3.80;;;;;;;;;;5066092;28;20033;-73
2023/06/16 14:05:14;;;;;;;4.15;3.17;;;;;;;;;;5054922;28;20047;-73
2023/06/16 14:07:40;;;;;;;4.57;3.63;;;;;;;;;;5061776;28;20051;-73
2023/06/16 14:10:06;;;;;;;3.30;3.00;;;;;;;;;;5055885;28;20400;-73
2023/06/16 14:12:31;;;;;;;6.18;3.83;;;;;;;;;;5054844;28;20170;-73
2023/06/16 14:14:57;;;;;;;5.28;3.80;;;;;;;;;;5062732;28;20028;-73
2023/06/16 14:17:23;;;;;;;4.70;3.72;;;;;;;;;;5056004;28;20427;-73
2023/06/16 14:19:49;;;;;;;4.50;3.50;;;;;;;;;;5055598;28;20044;-74
2023/06/16 14:22:14;;;;;;;10.20;4.20;;;;;;;;;;5053150;28;20033;-73
2023/06/16 14:24:39;;;;;;;3.53;3.15;;;;;;;;;;5054942;28;20044;-73
2023/06/16 14:27:05;;;;;;;6.78;3.50;;;;;;;;;;5055426;28;20024;-73
2023/06/16 14:29:30;;;;;;;5.15;3.22;;;;;;;;;;5056018;28;20028;-73
2023/06/16 14:31:55;;;;;;;5.93;3.47;;;;;;;;;;5058345;28;20403;-73
2023/06/16 14:34:22;;;;;;;5.05;4.03;;;;;;;;;;5055089;28;20407;-73
2023/06/16 14:36:47;;;;;;;4.63;3.85;;;;;;;;;;5050986;28;20036;-75